sensor_id;sensor_type;location;lat;lon;timestamp;P1;durP1;ratioP1;P2;durP2;ratioP2
69594;SDS011;56800;52.142;5.364;2022-10-13T00:02:09;21.85;;;6.70;;
69594;SDS011;56800;52.142;5.364;2022-10-13T00:04:37;18.30;;;7.18;;
69594;SDS011;56800;52.142;5.364;2022-10-13T00:07:06;19.05;;;7.25;;
69594;SDS011;56800;52.142;5.364;2022-10-13T00:09:35;21.48;;;7.28;;
69594;SDS011;56800;52.142;5.364;2022-10-13T00:12:41;15.77;;;8.53;;
69594;SDS011;56800;52.142;5.364;2022-10-13T00:15:41;19.42;;;7.85;;
69594;SDS011;56800;52.142;5.364;2022-10-13T00:18:28;18.17;;;7.80;;
69594;SDS011;56800;52.142;5.364;2022-10-13T00:21:12;20.23;;;6.95;;
69594;SDS011;56800;52.142;5.364;2022-10-13T00:24:02;17.83;;;8.38;;
69594;SDS011;56800;52.142;5.364;2022-10-13T00:27:41;15.60;;;8.20;;
69594;SDS011;56800;52.142;5.364;2022-10-13T00:30:34;16.77;;;6.90;;
69594;SDS011;56800;52.142;5.364;2022-10-13T00:33:47;17.58;;;8.35;;
69594;SDS011;56800;52.142;5.364;2022-10-13T00:36:52;19.27;;;8.88;;
69594;SDS011;56800;52.142;5.364;2022-10-13T00:39:39;17.55;;;8.30;;
69594;SDS011;56800;52.142;5.364;2022-10-13T00:42:25;17.37;;;7.87;;
69594;SDS011;56800;52.142;5.364;2022-10-13T00:45:40;19.85;;;8.35;;
69594;SDS011;56800;52.142;5.364;2022-10-13T00:48:40;20.73;;;8.02;;
69594;SDS011;56800;52.142;5.364;2022-10-13T00:51:10;21.20;;;8.77;;
69594;SDS011;56800;52.142;5.364;2022-10-13T00:53:57;24.40;;;8.98;;
69594;SDS011;56800;52.142;5.364;2022-10-13T00:57:12;25.80;;;9.50;;
69594;SDS011;56800;52.142;5.364;2022-10-13T01:00:20;19.00;;;9.25;;
69594;SDS011;56800;52.142;5.364;2022-10-13T01:03:36;16.35;;;9.18;;
69594;SDS011;56800;52.142;5.364;2022-10-13T01:06:31;16.55;;;8.95;;
69594;SDS011;56800;52.142;5.364;2022-10-13T01:09:22;15.82;;;8.85;;
69594;SDS011;56800;52.142;5.364;2022-10-13T01:15:51;21.38;;;9.05;;
69594;SDS011;56800;52.142;5.364;2022-10-13T01:21:38;22.08;;;9.68;;
69594;SDS011;56800;52.142;5.364;2022-10-13T01:32:53;16.80;;;9.63;;
69594;SDS011;56800;52.142;5.364;2022-10-13T01:35:48;19.17;;;9.88;;
69594;SDS011;56800;52.142;5.364;2022-10-13T01:44:02;25.30;;;9.90;;
69594;SDS011;56800;52.142;5.364;2022-10-13T01:46:37;23.42;;;9.88;;
69594;SDS011;56800;52.142;5.364;2022-10-13T01:49:09;21.45;;;10.00;;
69594;SDS011;56800;52.142;5.364;2022-10-13T01:51:37;16.80;;;9.50;;
69594;SDS011;56800;52.142;5.364;2022-10-13T01:54:05;18.60;;;9.73;;
69594;SDS011;56800;52.142;5.364;2022-10-13T01:56:32;17.73;;;9.80;;
69594;SDS011;56800;52.142;5.364;2022-10-13T01:59:00;25.92;;;10.07;;
69594;SDS011;56800;52.142;5.364;2022-10-13T02:10:01;17.17;;;7.80;;
69594;SDS011;56800;52.142;5.364;2022-10-13T02:12:38;18.98;;;9.40;;
69594;SDS011;56800;52.142;5.364;2022-10-13T02:15:12;18.42;;;8.77;;
69594;SDS011;56800;52.142;5.364;2022-10-13T02:17:43;18.20;;;8.88;;
69594;SDS011;56800;52.142;5.364;2022-10-13T02:20:09;16.70;;;9.40;;
69594;SDS011;56800;52.142;5.364;2022-10-13T02:22:38;20.33;;;9.93;;
69594;SDS011;56800;52.142;5.364;2022-10-13T02:25:08;19.73;;;9.70;;
69594;SDS011;56800;52.142;5.364;2022-10-13T02:27:35;21.88;;;9.10;;
69594;SDS011;56800;52.142;5.364;2022-10-13T02:30:01;18.75;;;9.63;;
69594;SDS011;56800;52.142;5.364;2022-10-13T02:32:29;19.93;;;9.37;;
69594;SDS011;56800;52.142;5.364;2022-10-13T02:34:56;22.30;;;10.32;;
69594;SDS011;56800;52.142;5.364;2022-10-13T02:37:24;17.90;;;9.75;;
69594;SDS011;56800;52.142;5.364;2022-10-13T02:40:08;17.90;;;9.63;;
69594;SDS011;56800;52.142;5.364;2022-10-13T02:43:07;20.45;;;9.55;;
69594;SDS011;56800;52.142;5.364;2022-10-13T02:45:41;21.57;;;9.37;;
69594;SDS011;56800;52.142;5.364;2022-10-13T02:48:08;21.90;;;10.13;;
69594;SDS011;56800;52.142;5.364;2022-10-13T02:50:35;21.48;;;9.90;;
69594;SDS011;56800;52.142;5.364;2022-10-13T02:53:01;17.33;;;9.80;;
69594;SDS011;56800;52.142;5.364;2022-10-13T02:55:28;21.58;;;8.60;;
69594;SDS011;56800;52.142;5.364;2022-10-13T02:57:55;20.33;;;7.63;;
69594;SDS011;56800;52.142;5.364;2022-10-13T03:00:22;15.30;;;8.13;;
69594;SDS011;56800;52.142;5.364;2022-10-13T03:02:49;18.83;;;10.27;;
69594;SDS011;56800;52.142;5.364;2022-10-13T03:05:15;17.73;;;8.57;;
69594;SDS011;56800;52.142;5.364;2022-10-13T03:07:42;19.02;;;8.45;;
69594;SDS011;56800;52.142;5.364;2022-10-13T03:10:08;19.50;;;9.17;;
69594;SDS011;56800;52.142;5.364;2022-10-13T03:12:35;15.23;;;8.00;;
69594;SDS011;56800;52.142;5.364;2022-10-13T03:15:02;16.90;;;9.20;;
69594;SDS011;56800;52.142;5.364;2022-10-13T03:17:29;16.73;;;9.30;;
69594;SDS011;56800;52.142;5.364;2022-10-13T03:19:55;19.52;;;9.82;;
69594;SDS011;56800;52.142;5.364;2022-10-13T03:22:22;21.77;;;10.00;;
69594;SDS011;56800;52.142;5.364;2022-10-13T03:24:51;17.48;;;10.50;;
69594;SDS011;56800;52.142;5.364;2022-10-13T03:27:18;22.00;;;10.07;;
69594;SDS011;56800;52.142;5.364;2022-10-13T03:29:45;20.83;;;10.25;;
69594;SDS011;56800;52.142;5.364;2022-10-13T03:32:12;20.40;;;9.98;;
69594;SDS011;56800;52.142;5.364;2022-10-13T03:34:38;16.80;;;9.33;;
69594;SDS011;56800;52.142;5.364;2022-10-13T03:37:05;18.48;;;10.10;;
69594;SDS011;56800;52.142;5.364;2022-10-13T03:39:32;23.10;;;10.32;;
69594;SDS011;56800;52.142;5.364;2022-10-13T03:41:58;21.00;;;10.73;;
69594;SDS011;56800;52.142;5.364;2022-10-13T03:44:25;21.27;;;9.82;;
69594;SDS011;56800;52.142;5.364;2022-10-13T03:46:51;21.10;;;9.90;;
69594;SDS011;56800;52.142;5.364;2022-10-13T03:49:18;19.08;;;10.02;;
69594;SDS011;56800;52.142;5.364;2022-10-13T03:51:45;20.75;;;9.38;;
69594;SDS011;56800;52.142;5.364;2022-10-13T03:54:11;17.95;;;10.18;;
69594;SDS011;56800;52.142;5.364;2022-10-13T03:56:39;20.83;;;10.25;;
69594;SDS011;56800;52.142;5.364;2022-10-13T03:59:06;23.30;;;10.30;;
69594;SDS011;56800;52.142;5.364;2022-10-13T04:01:33;17.52;;;10.05;;
69594;SDS011;56800;52.142;5.364;2022-10-13T04:04:00;19.63;;;9.80;;
69594;SDS011;56800;52.142;5.364;2022-10-13T04:06:30;17.33;;;9.93;;
69594;SDS011;56800;52.142;5.364;2022-10-13T04:08:56;20.08;;;10.80;;
69594;SDS011;56800;52.142;5.364;2022-10-13T04:11:24;20.57;;;10.40;;
69594;SDS011;56800;52.142;5.364;2022-10-13T04:13:50;16.52;;;10.25;;
69594;SDS011;56800;52.142;5.364;2022-10-13T04:16:21;19.45;;;10.10;;
69594;SDS011;56800;52.142;5.364;2022-10-13T04:18:50;22.20;;;10.90;;
69594;SDS011;56800;52.142;5.364;2022-10-13T04:21:18;17.35;;;9.52;;
69594;SDS011;56800;52.142;5.364;2022-10-13T04:23:45;20.13;;;9.43;;
69594;SDS011;56800;52.142;5.364;2022-10-13T04:26:16;20.40;;;9.27;;
69594;SDS011;56800;52.142;5.364;2022-10-13T04:28:46;18.73;;;10.75;;
69594;SDS011;56800;52.142;5.364;2022-10-13T04:31:14;19.38;;;8.73;;
69594;SDS011;56800;52.142;5.364;2022-10-13T04:33:41;22.00;;;9.75;;
69594;SDS011;56800;52.142;5.364;2022-10-13T04:36:09;24.10;;;10.27;;
69594;SDS011;56800;52.142;5.364;2022-10-13T04:38:36;24.58;;;11.27;;
69594;SDS011;56800;52.142;5.364;2022-10-13T04:41:04;20.23;;;10.02;;
69594;SDS011;56800;52.142;5.364;2022-10-13T04:43:31;19.83;;;10.43;;
69594;SDS011;56800;52.142;5.364;2022-10-13T04:46:03;18.48;;;10.45;;
69594;SDS011;56800;52.142;5.364;2022-10-13T04:48:34;23.37;;;11.13;;
69594;SDS011;56800;52.142;5.364;2022-10-13T04:51:01;24.65;;;11.40;;
69594;SDS011;56800;52.142;5.364;2022-10-13T04:53:30;21.60;;;12.32;;
69594;SDS011;56800;52.142;5.364;2022-10-13T04:56:01;19.33;;;11.20;;
69594;SDS011;56800;52.142;5.364;2022-10-13T04:58:29;20.05;;;10.82;;
69594;SDS011;56800;52.142;5.364;2022-10-13T05:00:56;23.90;;;11.10;;
69594;SDS011;56800;52.142;5.364;2022-10-13T05:03:23;23.20;;;11.32;;
69594;SDS011;56800;52.142;5.364;2022-10-13T05:05:50;21.48;;;10.95;;
69594;SDS011;56800;52.142;5.364;2022-10-13T05:08:17;22.35;;;11.68;;
69594;SDS011;56800;52.142;5.364;2022-10-13T05:10:56;21.08;;;10.82;;
69594;SDS011;56800;52.142;5.364;2022-10-13T05:13:25;21.37;;;11.27;;
69594;SDS011;56800;52.142;5.364;2022-10-13T05:15:52;22.55;;;11.07;;
69594;SDS011;56800;52.142;5.364;2022-10-13T05:18:19;24.30;;;11.85;;
69594;SDS011;56800;52.142;5.364;2022-10-13T05:20:46;20.10;;;11.77;;
69594;SDS011;56800;52.142;5.364;2022-10-13T05:23:13;28.70;;;11.82;;
69594;SDS011;56800;52.142;5.364;2022-10-13T05:25:40;23.83;;;11.20;;
69594;SDS011;56800;52.142;5.364;2022-10-13T05:28:07;21.83;;;11.68;;
69594;SDS011;56800;52.142;5.364;2022-10-13T05:30:34;22.17;;;11.52;;
69594;SDS011;56800;52.142;5.364;2022-10-13T05:33:01;23.45;;;12.25;;
69594;SDS011;56800;52.142;5.364;2022-10-13T05:35:27;19.77;;;11.25;;
69594;SDS011;56800;52.142;5.364;2022-10-13T05:37:54;21.17;;;11.90;;
69594;SDS011;56800;52.142;5.364;2022-10-13T05:40:20;27.27;;;11.77;;
69594;SDS011;56800;52.142;5.364;2022-10-13T05:42:50;26.70;;;12.43;;
69594;SDS011;56800;52.142;5.364;2022-10-13T05:45:18;23.33;;;11.77;;
69594;SDS011;56800;52.142;5.364;2022-10-13T05:47:47;22.67;;;11.45;;
69594;SDS011;56800;52.142;5.364;2022-10-13T05:50:13;25.47;;;11.93;;
69594;SDS011;56800;52.142;5.364;2022-10-13T05:52:40;27.63;;;11.43;;
69594;SDS011;56800;52.142;5.364;2022-10-13T05:55:07;28.42;;;12.05;;
69594;SDS011;56800;52.142;5.364;2022-10-13T05:57:37;21.08;;;12.05;;
69594;SDS011;56800;52.142;5.364;2022-10-13T06:00:08;28.65;;;12.30;;
69594;SDS011;56800;52.142;5.364;2022-10-13T06:02:38;21.67;;;11.23;;
69594;SDS011;56800;52.142;5.364;2022-10-13T06:05:13;24.40;;;11.75;;
69594;SDS011;56800;52.142;5.364;2022-10-13T06:07:42;26.80;;;12.57;;
69594;SDS011;56800;52.142;5.364;2022-10-13T06:10:11;28.25;;;11.80;;
69594;SDS011;56800;52.142;5.364;2022-10-13T06:12:38;20.88;;;12.32;;
69594;SDS011;56800;52.142;5.364;2022-10-13T06:15:04;26.73;;;12.43;;
69594;SDS011;56800;52.142;5.364;2022-10-13T06:17:34;26.98;;;11.65;;
69594;SDS011;56800;52.142;5.364;2022-10-13T06:20:02;25.30;;;11.85;;
69594;SDS011;56800;52.142;5.364;2022-10-13T06:22:34;26.23;;;13.20;;
69594;SDS011;56800;52.142;5.364;2022-10-13T06:25:02;28.02;;;12.00;;
69594;SDS011;56800;52.142;5.364;2022-10-13T06:27:30;22.63;;;12.13;;
69594;SDS011;56800;52.142;5.364;2022-10-13T06:29:57;26.05;;;11.77;;
69594;SDS011;56800;52.142;5.364;2022-10-13T06:32:23;23.75;;;12.15;;
69594;SDS011;56800;52.142;5.364;2022-10-13T06:34:50;26.17;;;13.57;;
69594;SDS011;56800;52.142;5.364;2022-10-13T06:37:17;27.38;;;11.80;;
69594;SDS011;56800;52.142;5.364;2022-10-13T06:39:49;29.60;;;14.00;;
69594;SDS011;56800;52.142;5.364;2022-10-13T06:42:16;24.50;;;12.82;;
69594;SDS011;56800;52.142;5.364;2022-10-13T06:44:44;25.63;;;13.13;;
69594;SDS011;56800;52.142;5.364;2022-10-13T06:47:10;28.40;;;13.43;;
69594;SDS011;56800;52.142;5.364;2022-10-13T06:49:37;27.63;;;13.30;;
69594;SDS011;56800;52.142;5.364;2022-10-13T06:52:04;28.37;;;13.00;;
69594;SDS011;56800;52.142;5.364;2022-10-13T06:54:31;23.40;;;12.02;;
69594;SDS011;56800;52.142;5.364;2022-10-13T06:56:57;26.83;;;13.23;;
69594;SDS011;56800;52.142;5.364;2022-10-13T06:59:24;27.80;;;13.73;;
69594;SDS011;56800;52.142;5.364;2022-10-13T07:01:52;30.63;;;14.48;;
69594;SDS011;56800;52.142;5.364;2022-10-13T07:04:19;27.67;;;13.90;;
69594;SDS011;56800;52.142;5.364;2022-10-13T07:06:46;26.58;;;13.60;;
69594;SDS011;56800;52.142;5.364;2022-10-13T07:09:12;31.63;;;14.70;;
69594;SDS011;56800;52.142;5.364;2022-10-13T07:11:42;24.30;;;13.75;;
69594;SDS011;56800;52.142;5.364;2022-10-13T07:14:09;37.28;;;14.07;;
69594;SDS011;56800;52.142;5.364;2022-10-13T07:16:35;24.63;;;14.33;;
69594;SDS011;56800;52.142;5.364;2022-10-13T07:19:02;31.35;;;14.60;;
69594;SDS011;56800;52.142;5.364;2022-10-13T07:21:29;26.75;;;14.07;;
69594;SDS011;56800;52.142;5.364;2022-10-13T07:23:55;28.73;;;13.90;;
69594;SDS011;56800;52.142;5.364;2022-10-13T07:26:22;27.45;;;14.18;;
69594;SDS011;56800;52.142;5.364;2022-10-13T07:28:49;30.03;;;14.87;;
69594;SDS011;56800;52.142;5.364;2022-10-13T07:31:17;32.72;;;14.52;;
69594;SDS011;56800;52.142;5.364;2022-10-13T07:33:45;30.65;;;14.30;;
69594;SDS011;56800;52.142;5.364;2022-10-13T07:36:14;30.92;;;14.43;;
69594;SDS011;56800;52.142;5.364;2022-10-13T07:38:40;33.63;;;14.68;;
69594;SDS011;56800;52.142;5.364;2022-10-13T07:41:08;25.93;;;15.13;;
69594;SDS011;56800;52.142;5.364;2022-10-13T07:43:36;27.83;;;14.50;;
69594;SDS011;56800;52.142;5.364;2022-10-13T07:46:03;33.45;;;16.05;;
69594;SDS011;56800;52.142;5.364;2022-10-13T07:48:31;32.65;;;16.30;;
69594;SDS011;56800;52.142;5.364;2022-10-13T07:50:58;35.58;;;16.70;;
69594;SDS011;56800;52.142;5.364;2022-10-13T07:53:28;30.80;;;17.37;;
69594;SDS011;56800;52.142;5.364;2022-10-13T07:55:58;37.90;;;17.08;;
69594;SDS011;56800;52.142;5.364;2022-10-13T07:58:25;35.40;;;17.88;;
69594;SDS011;56800;52.142;5.364;2022-10-13T08:00:59;29.52;;;17.30;;
69594;SDS011;56800;52.142;5.364;2022-10-13T08:03:26;30.02;;;17.27;;
69594;SDS011;56800;52.142;5.364;2022-10-13T08:05:54;34.53;;;17.40;;
69594;SDS011;56800;52.142;5.364;2022-10-13T08:08:23;31.85;;;16.65;;
69594;SDS011;56800;52.142;5.364;2022-10-13T08:10:50;33.95;;;16.75;;
69594;SDS011;56800;52.142;5.364;2022-10-13T08:13:16;28.02;;;16.35;;
69594;SDS011;56800;52.142;5.364;2022-10-13T08:15:43;33.47;;;16.60;;
69594;SDS011;56800;52.142;5.364;2022-10-13T08:18:11;32.47;;;16.50;;
69594;SDS011;56800;52.142;5.364;2022-10-13T08:20:42;27.38;;;15.50;;
69594;SDS011;56800;52.142;5.364;2022-10-13T08:23:13;34.22;;;15.95;;
69594;SDS011;56800;52.142;5.364;2022-10-13T08:25:40;29.92;;;16.05;;
69594;SDS011;56800;52.142;5.364;2022-10-13T08:28:16;25.83;;;14.82;;
69594;SDS011;56800;52.142;5.364;2022-10-13T08:30:44;28.53;;;15.03;;
69594;SDS011;56800;52.142;5.364;2022-10-13T08:33:11;30.80;;;14.68;;
69594;SDS011;56800;52.142;5.364;2022-10-13T08:35:38;28.88;;;14.95;;
69594;SDS011;56800;52.142;5.364;2022-10-13T08:38:05;32.90;;;15.35;;
69594;SDS011;56800;52.142;5.364;2022-10-13T08:40:32;25.98;;;15.05;;
69594;SDS011;56800;52.142;5.364;2022-10-13T08:42:59;26.47;;;14.63;;
69594;SDS011;56800;52.142;5.364;2022-10-13T08:45:29;23.00;;;14.63;;
69594;SDS011;56800;52.142;5.364;2022-10-13T08:50:56;24.88;;;13.75;;
69594;SDS011;56800;52.142;5.364;2022-10-13T08:53:28;27.48;;;15.13;;
69594;SDS011;56800;52.142;5.364;2022-10-13T08:56:17;25.93;;;15.67;;
69594;SDS011;56800;52.142;5.364;2022-10-13T08:58:53;31.60;;;16.90;;
69594;SDS011;56800;52.142;5.364;2022-10-13T09:01:22;26.35;;;16.38;;
69594;SDS011;56800;52.142;5.364;2022-10-13T09:04:03;25.13;;;17.38;;
69594;SDS011;56800;52.142;5.364;2022-10-13T09:06:57;26.25;;;16.70;;
69594;SDS011;56800;52.142;5.364;2022-10-13T09:09:35;29.87;;;15.63;;
69594;SDS011;56800;52.142;5.364;2022-10-13T09:12:03;24.70;;;15.57;;
69594;SDS011;56800;52.142;5.364;2022-10-13T09:14:35;26.58;;;15.65;;
69594;SDS011;56800;52.142;5.364;2022-10-13T09:17:14;33.95;;;16.20;;
69594;SDS011;56800;52.142;5.364;2022-10-13T09:19:57;27.25;;;15.60;;
69594;SDS011;56800;52.142;5.364;2022-10-13T09:22:26;24.07;;;15.37;;
69594;SDS011;56800;52.142;5.364;2022-10-13T09:27:40;25.98;;;15.25;;
69594;SDS011;56800;52.142;5.364;2022-10-13T09:35:30;26.33;;;16.30;;
69594;SDS011;56800;52.142;5.364;2022-10-13T09:38:08;26.80;;;14.88;;
69594;SDS011;56800;52.142;5.364;2022-10-13T09:40:40;26.60;;;14.07;;
69594;SDS011;56800;52.142;5.364;2022-10-13T09:43:19;26.92;;;14.27;;
69594;SDS011;56800;52.142;5.364;2022-10-13T09:45:50;26.50;;;13.95;;
69594;SDS011;56800;52.142;5.364;2022-10-13T09:48:20;21.17;;;13.80;;
69594;SDS011;56800;52.142;5.364;2022-10-13T09:50:51;20.95;;;12.75;;
69594;SDS011;56800;52.142;5.364;2022-10-13T09:58:47;23.45;;;12.50;;
69594;SDS011;56800;52.142;5.364;2022-10-13T10:01:23;19.57;;;11.07;;
69594;SDS011;56800;52.142;5.364;2022-10-13T10:03:53;25.92;;;12.15;;
69594;SDS011;56800;52.142;5.364;2022-10-13T10:06:20;23.13;;;11.35;;
69594;SDS011;56800;52.142;5.364;2022-10-13T10:09:00;23.27;;;10.27;;
69594;SDS011;56800;52.142;5.364;2022-10-13T10:11:32;25.63;;;11.30;;
69594;SDS011;56800;52.142;5.364;2022-10-13T10:14:11;19.63;;;10.57;;
69594;SDS011;56800;52.142;5.364;2022-10-13T10:16:45;25.90;;;10.57;;
69594;SDS011;56800;52.142;5.364;2022-10-13T10:19:20;23.15;;;10.18;;
69594;SDS011;56800;52.142;5.364;2022-10-13T10:22:09;20.38;;;11.63;;
69594;SDS011;56800;52.142;5.364;2022-10-13T10:27:48;26.30;;;10.00;;
69594;SDS011;56800;52.142;5.364;2022-10-13T10:30:23;22.63;;;10.15;;
69594;SDS011;56800;52.142;5.364;2022-10-13T10:32:52;21.02;;;10.60;;
69594;SDS011;56800;52.142;5.364;2022-10-13T10:44:13;22.55;;;9.77;;
69594;SDS011;56800;52.142;5.364;2022-10-13T10:46:45;19.77;;;10.15;;
69594;SDS011;56800;52.142;5.364;2022-10-13T10:49:16;23.77;;;10.13;;
69594;SDS011;56800;52.142;5.364;2022-10-13T10:51:48;16.13;;;8.68;;
69594;SDS011;56800;52.142;5.364;2022-10-13T10:54:38;27.40;;;10.10;;
69594;SDS011;56800;52.142;5.364;2022-10-13T11:00:12;19.25;;;8.70;;
69594;SDS011;56800;52.142;5.364;2022-10-13T11:02:45;16.95;;;7.70;;
69594;SDS011;56800;52.142;5.364;2022-10-13T11:05:19;18.70;;;8.95;;
69594;SDS011;56800;52.142;5.364;2022-10-13T11:10:20;20.80;;;8.02;;
69594;SDS011;56800;52.142;5.364;2022-10-13T11:13:05;16.83;;;8.45;;
69594;SDS011;56800;52.142;5.364;2022-10-13T11:15:42;13.50;;;8.18;;
69594;SDS011;56800;52.142;5.364;2022-10-13T11:21:15;19.90;;;8.40;;
69594;SDS011;56800;52.142;5.364;2022-10-13T11:23:46;21.08;;;8.52;;
69594;SDS011;56800;52.142;5.364;2022-10-13T11:26:28;20.23;;;8.45;;
69594;SDS011;56800;52.142;5.364;2022-10-13T11:28:56;17.50;;;8.85;;
69594;SDS011;56800;52.142;5.364;2022-10-13T11:31:28;21.10;;;9.57;;
69594;SDS011;56800;52.142;5.364;2022-10-13T11:34:01;22.77;;;10.63;;
69594;SDS011;56800;52.142;5.364;2022-10-13T11:36:29;20.60;;;10.50;;
69594;SDS011;56800;52.142;5.364;2022-10-13T11:44:58;27.70;;;13.68;;
69594;SDS011;56800;52.142;5.364;2022-10-13T11:50:25;25.25;;;13.50;;
69594;SDS011;56800;52.142;5.364;2022-10-13T11:53:18;26.55;;;15.13;;
69594;SDS011;56800;52.142;5.364;2022-10-13T11:55:50;30.80;;;14.60;;
69594;SDS011;56800;52.142;5.364;2022-10-13T11:58:19;33.35;;;15.82;;
69594;SDS011;56800;52.142;5.364;2022-10-13T12:00:48;25.57;;;15.37;;
69594;SDS011;56800;52.142;5.364;2022-10-13T12:03:33;30.80;;;15.60;;
69594;SDS011;56800;52.142;5.364;2022-10-13T12:06:02;26.05;;;14.27;;
69594;SDS011;56800;52.142;5.364;2022-10-13T12:08:33;26.85;;;16.27;;
69594;SDS011;56800;52.142;5.364;2022-10-13T12:11:01;33.53;;;15.50;;
69594;SDS011;56800;52.142;5.364;2022-10-13T12:13:33;27.37;;;15.33;;
69594;SDS011;56800;52.142;5.364;2022-10-13T12:16:05;31.55;;;15.43;;
69594;SDS011;56800;52.142;5.364;2022-10-13T12:18:35;29.30;;;15.45;;
69594;SDS011;56800;52.142;5.364;2022-10-13T12:21:10;29.02;;;14.20;;
69594;SDS011;56800;52.142;5.364;2022-10-13T12:23:39;28.63;;;14.52;;
69594;SDS011;56800;52.142;5.364;2022-10-13T12:26:06;31.30;;;14.40;;
69594;SDS011;56800;52.142;5.364;2022-10-13T12:28:48;23.17;;;12.40;;
69594;SDS011;56800;52.142;5.364;2022-10-13T12:31:24;25.70;;;13.40;;
69594;SDS011;56800;52.142;5.364;2022-10-13T12:33:56;29.55;;;13.50;;
69594;SDS011;56800;52.142;5.364;2022-10-13T12:36:28;26.60;;;13.10;;
69594;SDS011;56800;52.142;5.364;2022-10-13T12:38:58;19.67;;;12.97;;
69594;SDS011;56800;52.142;5.364;2022-10-13T12:41:31;25.75;;;12.50;;
69594;SDS011;56800;52.142;5.364;2022-10-13T12:44:02;22.92;;;12.50;;
69594;SDS011;56800;52.142;5.364;2022-10-13T12:46:39;27.20;;;13.07;;
69594;SDS011;56800;52.142;5.364;2022-10-13T12:49:16;28.02;;;13.77;;
69594;SDS011;56800;52.142;5.364;2022-10-13T12:52:10;30.70;;;14.87;;
69594;SDS011;56800;52.142;5.364;2022-10-13T12:54:49;25.63;;;13.10;;
69594;SDS011;56800;52.142;5.364;2022-10-13T12:57:21;22.38;;;14.05;;
69594;SDS011;56800;52.142;5.364;2022-10-13T13:00:01;30.23;;;11.95;;
69594;SDS011;56800;52.142;5.364;2022-10-13T13:07:55;18.60;;;11.35;;
69594;SDS011;56800;52.142;5.364;2022-10-13T13:10:21;22.85;;;10.60;;
69594;SDS011;56800;52.142;5.364;2022-10-13T13:12:48;28.27;;;12.10;;
69594;SDS011;56800;52.142;5.364;2022-10-13T13:17:50;21.00;;;10.80;;
69594;SDS011;56800;52.142;5.364;2022-10-13T13:20:31;22.95;;;12.05;;
69594;SDS011;56800;52.142;5.364;2022-10-13T13:22:59;23.17;;;11.77;;
69594;SDS011;56800;52.142;5.364;2022-10-13T13:25:25;21.65;;;11.45;;
69594;SDS011;56800;52.142;5.364;2022-10-13T13:27:52;25.90;;;13.38;;
69594;SDS011;56800;52.142;5.364;2022-10-13T13:30:20;24.87;;;11.77;;
69594;SDS011;56800;52.142;5.364;2022-10-13T13:32:48;23.88;;;11.98;;
69594;SDS011;56800;52.142;5.364;2022-10-13T13:35:15;25.30;;;11.85;;
69594;SDS011;56800;52.142;5.364;2022-10-13T13:37:48;19.63;;;11.85;;
69594;SDS011;56800;52.142;5.364;2022-10-13T13:40:17;25.92;;;12.18;;
69594;SDS011;56800;52.142;5.364;2022-10-13T13:42:46;23.33;;;11.53;;
69594;SDS011;56800;52.142;5.364;2022-10-13T13:45:13;26.88;;;12.38;;
69594;SDS011;56800;52.142;5.364;2022-10-13T13:47:41;27.83;;;11.98;;
69594;SDS011;56800;52.142;5.364;2022-10-13T13:50:09;22.85;;;11.15;;
69594;SDS011;56800;52.142;5.364;2022-10-13T13:52:42;25.70;;;12.38;;
69594;SDS011;56800;52.142;5.364;2022-10-13T13:55:08;24.27;;;12.83;;
69594;SDS011;56800;52.142;5.364;2022-10-13T13:57:35;24.48;;;13.00;;
69594;SDS011;56800;52.142;5.364;2022-10-13T14:00:02;22.20;;;12.00;;
69594;SDS011;56800;52.142;5.364;2022-10-13T14:02:29;22.63;;;11.95;;
69594;SDS011;56800;52.142;5.364;2022-10-13T14:04:57;24.15;;;12.57;;
69594;SDS011;56800;52.142;5.364;2022-10-13T14:07:23;26.00;;;12.83;;
69594;SDS011;56800;52.142;5.364;2022-10-13T14:09:50;23.65;;;12.02;;
69594;SDS011;56800;52.142;5.364;2022-10-13T14:12:18;19.33;;;12.60;;
69594;SDS011;56800;52.142;5.364;2022-10-13T14:14:45;22.45;;;12.98;;
69594;SDS011;56800;52.142;5.364;2022-10-13T14:17:12;26.73;;;12.38;;
69594;SDS011;56800;52.142;5.364;2022-10-13T14:19:40;21.77;;;11.57;;
69594;SDS011;56800;52.142;5.364;2022-10-13T14:22:07;24.38;;;12.00;;
69594;SDS011;56800;52.142;5.364;2022-10-13T14:24:34;23.70;;;12.48;;
69594;SDS011;56800;52.142;5.364;2022-10-13T14:27:01;23.05;;;12.70;;
69594;SDS011;56800;52.142;5.364;2022-10-13T14:29:28;23.90;;;12.68;;
69594;SDS011;56800;52.142;5.364;2022-10-13T14:31:54;22.77;;;12.57;;
69594;SDS011;56800;52.142;5.364;2022-10-13T14:34:21;21.50;;;12.85;;
69594;SDS011;56800;52.142;5.364;2022-10-13T14:36:48;18.98;;;11.43;;
69594;SDS011;56800;52.142;5.364;2022-10-13T14:39:14;23.60;;;13.20;;
69594;SDS011;56800;52.142;5.364;2022-10-13T14:41:41;29.02;;;13.70;;
69594;SDS011;56800;52.142;5.364;2022-10-13T14:44:11;23.30;;;12.63;;
69594;SDS011;56800;52.142;5.364;2022-10-13T14:46:39;22.13;;;12.88;;
69594;SDS011;56800;52.142;5.364;2022-10-13T14:49:06;23.40;;;12.95;;
69594;SDS011;56800;52.142;5.364;2022-10-13T14:51:32;21.90;;;12.50;;
69594;SDS011;56800;52.142;5.364;2022-10-13T14:53:59;20.10;;;11.93;;
69594;SDS011;56800;52.142;5.364;2022-10-13T14:56:28;20.53;;;12.57;;
69594;SDS011;56800;52.142;5.364;2022-10-13T14:58:56;24.08;;;12.93;;
69594;SDS011;56800;52.142;5.364;2022-10-13T15:01:24;24.15;;;13.73;;
69594;SDS011;56800;52.142;5.364;2022-10-13T15:03:51;22.25;;;11.75;;
69594;SDS011;56800;52.142;5.364;2022-10-13T15:06:22;20.85;;;11.60;;
69594;SDS011;56800;52.142;5.364;2022-10-13T15:08:53;26.20;;;11.83;;
69594;SDS011;56800;52.142;5.364;2022-10-13T15:11:20;26.35;;;12.82;;
69594;SDS011;56800;52.142;5.364;2022-10-13T15:13:47;23.30;;;12.65;;
69594;SDS011;56800;52.142;5.364;2022-10-13T15:16:15;23.58;;;12.45;;
69594;SDS011;56800;52.142;5.364;2022-10-13T15:18:44;24.90;;;12.52;;
69594;SDS011;56800;52.142;5.364;2022-10-13T15:21:11;21.70;;;12.93;;
69594;SDS011;56800;52.142;5.364;2022-10-13T15:23:38;24.92;;;12.95;;
69594;SDS011;56800;52.142;5.364;2022-10-13T15:26:05;22.38;;;13.30;;
69594;SDS011;56800;52.142;5.364;2022-10-13T15:28:37;23.73;;;12.90;;
69594;SDS011;56800;52.142;5.364;2022-10-13T15:31:05;23.05;;;12.48;;
69594;SDS011;56800;52.142;5.364;2022-10-13T15:33:32;22.50;;;12.93;;
69594;SDS011;56800;52.142;5.364;2022-10-13T15:35:59;23.10;;;13.02;;
69594;SDS011;56800;52.142;5.364;2022-10-13T15:38:26;22.88;;;12.88;;
69594;SDS011;56800;52.142;5.364;2022-10-13T15:40:58;26.63;;;13.15;;
69594;SDS011;56800;52.142;5.364;2022-10-13T15:43:25;23.80;;;12.75;;
69594;SDS011;56800;52.142;5.364;2022-10-13T15:45:58;20.43;;;13.20;;
69594;SDS011;56800;52.142;5.364;2022-10-13T15:48:27;25.35;;;13.95;;
69594;SDS011;56800;52.142;5.364;2022-10-13T15:50:54;22.50;;;13.45;;
69594;SDS011;56800;52.142;5.364;2022-10-13T15:53:21;24.60;;;13.20;;
69594;SDS011;56800;52.142;5.364;2022-10-13T15:55:48;20.83;;;11.82;;
69594;SDS011;56800;52.142;5.364;2022-10-13T15:58:15;23.63;;;12.47;;
69594;SDS011;56800;52.142;5.364;2022-10-13T16:00:42;20.00;;;12.55;;
69594;SDS011;56800;52.142;5.364;2022-10-13T16:03:13;21.83;;;12.40;;
69594;SDS011;56800;52.142;5.364;2022-10-13T16:05:41;24.33;;;13.65;;
69594;SDS011;56800;52.142;5.364;2022-10-13T16:08:09;25.00;;;13.73;;
69594;SDS011;56800;52.142;5.364;2022-10-13T16:10:39;22.23;;;13.53;;
69594;SDS011;56800;52.142;5.364;2022-10-13T16:13:07;21.73;;;12.95;;